createdAt,value
2023-05-10T00:04:35.500Z,4.70
2023-05-10T00:19:35.354Z,5.10
2023-05-10T00:34:35.197Z,5.50
2023-05-10T00:49:35.059Z,5.50
2023-05-10T01:04:34.943Z,5.10
2023-05-10T01:19:34.727Z,5.20
2023-05-10T01:34:34.563Z,5.50
2023-05-10T01:49:34.399Z,5.30
2023-05-10T02:04:34.297Z,5.40
2023-05-10T02:19:34.101Z,5.70
2023-05-10T02:34:33.929Z,5.60
2023-05-10T02:49:33.769Z,5.40
2023-05-10T03:04:33.645Z,6.10
2023-05-10T03:19:33.454Z,5.30
2023-05-10T03:34:33.300Z,5.70
2023-05-10T03:49:33.152Z,5.40
2023-05-10T04:04:33.087Z,5.40
2023-05-10T04:19:32.940Z,5.00
2023-05-10T04:34:32.662Z,4.70
2023-05-10T04:49:32.554Z,4.60
2023-05-10T05:04:32.379Z,3.80
2023-05-10T05:19:32.198Z,4.10
2023-05-10T05:34:32.068Z,3.80
2023-05-10T05:49:31.896Z,3.30
2023-05-10T06:04:31.773Z,3.00
2023-05-10T06:19:31.627Z,3.00
2023-05-10T06:34:31.428Z,2.70
2023-05-10T06:49:31.246Z,2.60
2023-05-10T07:04:31.129Z,2.40
2023-05-10T07:19:30.930Z,2.20
2023-05-10T07:34:30.795Z,2.20
2023-05-10T07:49:30.600Z,2.20
2023-05-10T08:04:30.516Z,2.30
2023-05-10T08:19:30.281Z,2.20
2023-05-10T08:34:30.147Z,2.40
2023-05-10T08:49:36.150Z,2.00
2023-05-10T09:04:29.950Z,2.20
2023-05-10T09:19:29.708Z,2.20
2023-05-10T09:34:29.510Z,2.20
2023-05-10T09:49:29.321Z,2.10
2023-05-10T10:04:29.321Z,2.10
2023-05-10T10:19:29.049Z,2.20
2023-05-10T10:34:28.862Z,1.80
2023-05-10T10:49:28.700Z,2.10
2023-05-10T11:04:28.621Z,2.20
2023-05-10T11:19:28.414Z,2.30
2023-05-10T11:34:28.248Z,1.90
2023-05-10T11:49:28.059Z,2.20
2023-05-10T12:04:27.926Z,2.20
2023-05-10T12:19:27.720Z,2.10
2023-05-10T12:34:27.565Z,1.90
2023-05-10T12:49:27.391Z,1.80
2023-05-10T13:04:27.269Z,1.80
2023-05-10T13:19:28.180Z,2.10
2023-05-10T13:34:26.978Z,1.80
2023-05-10T13:49:26.805Z,1.80
2023-05-10T14:04:26.630Z,1.90
2023-05-10T14:19:26.445Z,1.90
2023-05-10T14:34:26.306Z,2.00
2023-05-10T14:49:26.161Z,1.90
2023-05-10T15:04:28.317Z,1.80
2023-05-10T15:19:25.837Z,1.90
2023-05-10T15:34:25.680Z,1.70
2023-05-10T15:49:25.616Z,1.60
2023-05-10T16:04:25.442Z,1.70
2023-05-10T16:19:25.939Z,2.00
2023-05-10T16:34:25.057Z,2.20
2023-05-10T16:49:26.191Z,2.00
2023-05-10T17:04:24.834Z,2.40
2023-05-10T17:19:26.310Z,3.50
2023-05-10T17:34:24.394Z,4.10
2023-05-10T17:49:24.307Z,4.40
2023-05-10T18:04:24.222Z,4.60
2023-05-10T18:19:24.009Z,4.50
2023-05-10T18:34:23.750Z,4.60
2023-05-10T18:49:23.670Z,4.90
2023-05-10T19:04:23.459Z,5.00
2023-05-10T19:19:23.288Z,5.80
2023-05-10T19:34:23.195Z,5.80
2023-05-10T19:49:23.112Z,10.10
2023-05-10T20:04:22.985Z,6.00
2023-05-10T20:19:22.667Z,5.80
2023-05-10T20:34:22.567Z,6.40
2023-05-10T20:49:22.361Z,6.00
2023-05-10T21:04:22.175Z,6.50
2023-05-10T21:19:22.033Z,7.10
2023-05-10T21:34:21.884Z,7.00
2023-05-10T21:49:21.710Z,7.50
2023-05-10T22:04:21.564Z,7.40
2023-05-10T22:19:21.445Z,8.20
2023-05-10T22:34:21.229Z,8.80
2023-05-10T22:49:21.072Z,8.80
2023-05-10T23:04:21.046Z,9.00
2023-05-10T23:19:20.765Z,9.50
2023-05-10T23:34:20.594Z,10.20
2023-05-10T23:49:20.435Z,10.30
